sensor_id;sensor_type;location;lat;lon;timestamp;temperature;humidity
38090;DHT22;23904;52.322;10.232;2023-02-15T00:01:37;4.00;99.90
38090;DHT22;23904;52.322;10.232;2023-02-15T00:04:04;4.00;99.90
38090;DHT22;23904;52.322;10.232;2023-02-15T00:06:32;3.90;99.90
38090;DHT22;23904;52.322;10.232;2023-02-15T00:08:57;3.90;99.90
38090;DHT22;23904;52.322;10.232;2023-02-15T00:11:23;3.90;99.90
38090;DHT22;23904;52.322;10.232;2023-02-15T00:14:17;3.90;99.90
38090;DHT22;23904;52.322;10.232;2023-02-15T00:16:44;3.90;99.90
38090;DHT22;23904;52.322;10.232;2023-02-15T00:19:11;4.00;99.90
38090;DHT22;23904;52.322;10.232;2023-02-15T00:21:39;4.00;99.90
38090;DHT22;23904;52.322;10.232;2023-02-15T00:24:07;4.00;99.90
38090;DHT22;23904;52.322;10.232;2023-02-15T00:26:34;4.00;99.90
38090;DHT22;23904;52.322;10.232;2023-02-15T00:29:00;4.00;99.90
38090;DHT22;23904;52.322;10.232;2023-02-15T00:31:28;4.10;99.90
38090;DHT22;23904;52.322;10.232;2023-02-15T00:34:00;4.20;99.90
38090;DHT22;23904;52.322;10.232;2023-02-15T00:36:30;4.20;99.90
38090;DHT22;23904;52.322;10.232;2023-02-15T00:38:56;4.10;99.90
38090;DHT22;23904;52.322;10.232;2023-02-15T00:41:21;4.00;99.90
38090;DHT22;23904;52.322;10.232;2023-02-15T00:43:47;3.80;99.90
38090;DHT22;23904;52.322;10.232;2023-02-15T00:46:12;3.70;99.90
38090;DHT22;23904;52.322;10.232;2023-02-15T00:48:38;3.60;99.90
38090;DHT22;23904;52.322;10.232;2023-02-15T00:51:04;3.50;99.90
38090;DHT22;23904;52.322;10.232;2023-02-15T00:53:30;3.30;99.90
38090;DHT22;23904;52.322;10.232;2023-02-15T00:55:56;3.30;99.90
38090;DHT22;23904;52.322;10.232;2023-02-15T00:58:22;3.30;99.90
38090;DHT22;23904;52.322;10.232;2023-02-15T01:00:48;3.30;99.90
38090;DHT22;23904;52.322;10.232;2023-02-15T01:03:16;3.40;99.90
38090;DHT22;23904;52.322;10.232;2023-02-15T01:05:42;3.40;99.90
38090;DHT22;23904;52.322;10.232;2023-02-15T01:08:08;3.60;99.90
38090;DHT22;23904;52.322;10.232;2023-02-15T01:10:35;3.80;99.90
38090;DHT22;23904;52.322;10.232;2023-02-15T01:13:01;4.00;99.90
38090;DHT22;23904;52.322;10.232;2023-02-15T01:15:28;4.10;99.90
38090;DHT22;23904;52.322;10.232;2023-02-15T01:17:53;4.10;99.90
38090;DHT22;23904;52.322;10.232;2023-02-15T01:20:20;4.20;99.90
38090;DHT22;23904;52.322;10.232;2023-02-15T01:22:47;4.20;99.90
38090;DHT22;23904;52.322;10.232;2023-02-15T01:25:15;4.10;99.90
38090;DHT22;23904;52.322;10.232;2023-02-15T01:27:42;4.00;99.90
38090;DHT22;23904;52.322;10.232;2023-02-15T01:30:08;4.00;99.90
38090;DHT22;23904;52.322;10.232;2023-02-15T01:32:34;4.00;99.90
38090;DHT22;23904;52.322;10.232;2023-02-15T01:35:00;4.00;99.90
38090;DHT22;23904;52.322;10.232;2023-02-15T01:37:27;3.90;99.90
38090;DHT22;23904;52.322;10.232;2023-02-15T01:39:52;3.80;99.90
38090;DHT22;23904;52.322;10.232;2023-02-15T01:42:22;3.80;99.90
38090;DHT22;23904;52.322;10.232;2023-02-15T01:44:54;3.80;99.90
38090;DHT22;23904;52.322;10.232;2023-02-15T01:47:33;3.80;99.90
38090;DHT22;23904;52.322;10.232;2023-02-15T01:50:36;3.80;99.90
38090;DHT22;23904;52.322;10.232;2023-02-15T01:53:21;3.80;99.90
38090;DHT22;23904;52.322;10.232;2023-02-15T01:55:58;3.80;99.90
38090;DHT22;23904;52.322;10.232;2023-02-15T01:58:27;3.70;99.90
38090;DHT22;23904;52.322;10.232;2023-02-15T02:00:58;3.70;99.90
38090;DHT22;23904;52.322;10.232;2023-02-15T02:06:33;3.60;99.90
38090;DHT22;23904;52.322;10.232;2023-02-15T02:09:01;3.50;99.90
38090;DHT22;23904;52.322;10.232;2023-02-15T02:11:27;3.40;99.90
38090;DHT22;23904;52.322;10.232;2023-02-15T02:13:54;3.30;99.90
38090;DHT22;23904;52.322;10.232;2023-02-15T02:22:53;2.80;99.90
38090;DHT22;23904;52.322;10.232;2023-02-15T02:28:31;2.40;99.90
38090;DHT22;23904;52.322;10.232;2023-02-15T02:34:54;2.10;99.90
38090;DHT22;23904;52.322;10.232;2023-02-15T02:37:30;2.10;99.90
38090;DHT22;23904;52.322;10.232;2023-02-15T02:43:12;2.20;99.90
38090;DHT22;23904;52.322;10.232;2023-02-15T02:46:02;2.20;99.90
38090;DHT22;23904;52.322;10.232;2023-02-15T02:48:33;2.20;99.90
38090;DHT22;23904;52.322;10.232;2023-02-15T02:50:59;2.20;99.90
38090;DHT22;23904;52.322;10.232;2023-02-15T02:53:25;2.10;99.90
38090;DHT22;23904;52.322;10.232;2023-02-15T02:59:05;2.10;99.90
38090;DHT22;23904;52.322;10.232;2023-02-15T03:01:42;2.00;99.90
38090;DHT22;23904;52.322;10.232;2023-02-15T03:04:14;1.90;99.90
38090;DHT22;23904;52.322;10.232;2023-02-15T03:06:52;1.90;99.90
38090;DHT22;23904;52.322;10.232;2023-02-15T03:09:27;1.80;99.90
38090;DHT22;23904;52.322;10.232;2023-02-15T03:12:16;1.70;99.90
38090;DHT22;23904;52.322;10.232;2023-02-15T03:14:46;1.70;99.90
38090;DHT22;23904;52.322;10.232;2023-02-15T03:17:15;1.80;99.90
38090;DHT22;23904;52.322;10.232;2023-02-15T03:19:44;1.80;99.90
38090;DHT22;23904;52.322;10.232;2023-02-15T03:22:17;1.90;99.90
38090;DHT22;23904;52.322;10.232;2023-02-15T03:27:54;2.00;99.90
38090;DHT22;23904;52.322;10.232;2023-02-15T03:30:22;2.00;99.90
38090;DHT22;23904;52.322;10.232;2023-02-15T03:32:49;2.00;99.90
38090;DHT22;23904;52.322;10.232;2023-02-15T03:35:17;2.10;99.90
38090;DHT22;23904;52.322;10.232;2023-02-15T03:37:48;2.20;99.90
38090;DHT22;23904;52.322;10.232;2023-02-15T03:40:18;2.10;99.90
38090;DHT22;23904;52.322;10.232;2023-02-15T03:45:51;2.00;99.90
38090;DHT22;23904;52.322;10.232;2023-02-15T03:48:28;1.90;99.90
38090;DHT22;23904;52.322;10.232;2023-02-15T03:51:00;1.80;99.90
38090;DHT22;23904;52.322;10.232;2023-02-15T03:53:49;1.80;99.90
38090;DHT22;23904;52.322;10.232;2023-02-15T03:56:20;1.80;99.90
38090;DHT22;23904;52.322;10.232;2023-02-15T03:58:45;1.70;99.90
38090;DHT22;23904;52.322;10.232;2023-02-15T04:01:53;1.70;99.90
38090;DHT22;23904;52.322;10.232;2023-02-15T04:04:25;1.70;99.90
38090;DHT22;23904;52.322;10.232;2023-02-15T04:07:00;1.60;99.90
38090;DHT22;23904;52.322;10.232;2023-02-15T04:09:25;1.60;99.90
38090;DHT22;23904;52.322;10.232;2023-02-15T04:12:09;1.60;99.90
38090;DHT22;23904;52.322;10.232;2023-02-15T04:14:35;1.60;99.90
38090;DHT22;23904;52.322;10.232;2023-02-15T04:17:19;1.70;99.90
38090;DHT22;23904;52.322;10.232;2023-02-15T04:19:45;1.80;99.90
38090;DHT22;23904;52.322;10.232;2023-02-15T04:22:29;1.80;99.90
38090;DHT22;23904;52.322;10.232;2023-02-15T04:25:13;1.90;99.90
38090;DHT22;23904;52.322;10.232;2023-02-15T04:27:50;1.90;99.90
38090;DHT22;23904;52.322;10.232;2023-02-15T04:30:18;1.90;99.90
38090;DHT22;23904;52.322;10.232;2023-02-15T04:32:46;2.00;99.90
38090;DHT22;23904;52.322;10.232;2023-02-15T04:35:12;1.90;99.90
38090;DHT22;23904;52.322;10.232;2023-02-15T04:37:39;2.00;99.90
38090;DHT22;23904;52.322;10.232;2023-02-15T04:40:06;2.00;99.90
38090;DHT22;23904;52.322;10.232;2023-02-15T04:42:32;2.00;99.90
38090;DHT22;23904;52.322;10.232;2023-02-15T04:44:58;2.00;99.90
38090;DHT22;23904;52.322;10.232;2023-02-15T04:47:23;2.00;99.90
38090;DHT22;23904;52.322;10.232;2023-02-15T04:49:49;2.00;99.90
38090;DHT22;23904;52.322;10.232;2023-02-15T04:52:15;2.00;99.90
38090;DHT22;23904;52.322;10.232;2023-02-15T04:54:42;2.00;99.90
38090;DHT22;23904;52.322;10.232;2023-02-15T04:57:08;2.00;99.90
38090;DHT22;23904;52.322;10.232;2023-02-15T04:59:33;2.00;99.90
38090;DHT22;23904;52.322;10.232;2023-02-15T05:01:59;1.90;99.90
38090;DHT22;23904;52.322;10.232;2023-02-15T05:04:24;1.90;99.90
38090;DHT22;23904;52.322;10.232;2023-02-15T05:06:50;1.80;99.90
38090;DHT22;23904;52.322;10.232;2023-02-15T05:09:16;1.80;99.90
38090;DHT22;23904;52.322;10.232;2023-02-15T05:11:41;1.80;99.90
38090;DHT22;23904;52.322;10.232;2023-02-15T05:14:07;1.80;99.90
38090;DHT22;23904;52.322;10.232;2023-02-15T05:16:32;1.70;99.90
38090;DHT22;23904;52.322;10.232;2023-02-15T05:18:58;1.70;99.90
38090;DHT22;23904;52.322;10.232;2023-02-15T05:21:24;1.60;99.90
38090;DHT22;23904;52.322;10.232;2023-02-15T05:23:49;1.50;99.90
38090;DHT22;23904;52.322;10.232;2023-02-15T05:26:21;1.40;99.90
38090;DHT22;23904;52.322;10.232;2023-02-15T05:29:07;1.40;99.90
38090;DHT22;23904;52.322;10.232;2023-02-15T05:31:33;1.40;99.90
38090;DHT22;23904;52.322;10.232;2023-02-15T05:33:59;1.40;99.90
38090;DHT22;23904;52.322;10.232;2023-02-15T05:36:25;1.40;99.90
38090;DHT22;23904;52.322;10.232;2023-02-15T05:38:50;1.40;99.90
38090;DHT22;23904;52.322;10.232;2023-02-15T05:41:16;1.40;99.90
38090;DHT22;23904;52.322;10.232;2023-02-15T05:43:41;1.40;99.90
38090;DHT22;23904;52.322;10.232;2023-02-15T05:46:07;1.40;99.90
38090;DHT22;23904;52.322;10.232;2023-02-15T05:48:34;1.30;99.90
38090;DHT22;23904;52.322;10.232;2023-02-15T05:51:05;1.40;99.90
38090;DHT22;23904;52.322;10.232;2023-02-15T05:53:35;1.40;99.90
38090;DHT22;23904;52.322;10.232;2023-02-15T05:56:02;1.40;99.90
38090;DHT22;23904;52.322;10.232;2023-02-15T05:58:38;1.40;99.90
38090;DHT22;23904;52.322;10.232;2023-02-15T06:01:12;1.30;99.90
38090;DHT22;23904;52.322;10.232;2023-02-15T06:03:39;1.30;99.90
38090;DHT22;23904;52.322;10.232;2023-02-15T06:06:05;1.30;99.90
38090;DHT22;23904;52.322;10.232;2023-02-15T06:08:32;1.30;99.90
38090;DHT22;23904;52.322;10.232;2023-02-15T06:10:58;1.30;99.90
38090;DHT22;23904;52.322;10.232;2023-02-15T06:13:24;1.30;99.90
38090;DHT22;23904;52.322;10.232;2023-02-15T06:15:49;1.30;99.90
38090;DHT22;23904;52.322;10.232;2023-02-15T06:18:15;1.30;99.90
38090;DHT22;23904;52.322;10.232;2023-02-15T06:20:40;1.30;99.90
38090;DHT22;23904;52.322;10.232;2023-02-15T06:23:06;1.30;99.90
38090;DHT22;23904;52.322;10.232;2023-02-15T06:25:31;1.30;99.90
38090;DHT22;23904;52.322;10.232;2023-02-15T06:27:57;1.40;99.90
38090;DHT22;23904;52.322;10.232;2023-02-15T06:30:22;1.50;99.90
38090;DHT22;23904;52.322;10.232;2023-02-15T06:32:48;1.40;99.90
38090;DHT22;23904;52.322;10.232;2023-02-15T06:35:13;1.40;99.90
38090;DHT22;23904;52.322;10.232;2023-02-15T06:37:39;1.40;99.90
38090;DHT22;23904;52.322;10.232;2023-02-15T06:40:05;1.40;99.90
38090;DHT22;23904;52.322;10.232;2023-02-15T06:42:32;1.40;99.90
38090;DHT22;23904;52.322;10.232;2023-02-15T06:44:57;1.40;99.90
38090;DHT22;23904;52.322;10.232;2023-02-15T06:47:24;1.30;99.90
38090;DHT22;23904;52.322;10.232;2023-02-15T06:49:49;1.30;99.90
38090;DHT22;23904;52.322;10.232;2023-02-15T06:52:15;1.40;99.90
38090;DHT22;23904;52.322;10.232;2023-02-15T06:54:40;1.50;99.90
38090;DHT22;23904;52.322;10.232;2023-02-15T06:57:06;1.50;99.90
38090;DHT22;23904;52.322;10.232;2023-02-15T06:59:31;1.40;99.90
38090;DHT22;23904;52.322;10.232;2023-02-15T07:01:57;1.40;99.90
38090;DHT22;23904;52.322;10.232;2023-02-15T07:04:23;1.40;99.90
38090;DHT22;23904;52.322;10.232;2023-02-15T07:06:48;1.50;99.90
38090;DHT22;23904;52.322;10.232;2023-02-15T07:09:14;1.50;99.90
38090;DHT22;23904;52.322;10.232;2023-02-15T07:11:39;1.40;99.90
38090;DHT22;23904;52.322;10.232;2023-02-15T07:14:23;1.40;99.90
38090;DHT22;23904;52.322;10.232;2023-02-15T07:16:49;1.40;99.90
38090;DHT22;23904;52.322;10.232;2023-02-15T07:19:14;1.40;99.90
38090;DHT22;23904;52.322;10.232;2023-02-15T07:21:40;1.40;99.90
38090;DHT22;23904;52.322;10.232;2023-02-15T07:24:05;1.50;99.90
38090;DHT22;23904;52.322;10.232;2023-02-15T07:26:32;1.60;99.90
38090;DHT22;23904;52.322;10.232;2023-02-15T07:28:57;1.70;99.90
38090;DHT22;23904;52.322;10.232;2023-02-15T07:31:23;1.80;99.90
38090;DHT22;23904;52.322;10.232;2023-02-15T07:33:48;1.90;99.90
38090;DHT22;23904;52.322;10.232;2023-02-15T07:36:14;2.10;99.90
38090;DHT22;23904;52.322;10.232;2023-02-15T07:38:41;2.30;99.90
38090;DHT22;23904;52.322;10.232;2023-02-15T07:41:09;2.50;99.90
38090;DHT22;23904;52.322;10.232;2023-02-15T07:43:40;2.80;99.90
38090;DHT22;23904;52.322;10.232;2023-02-15T07:46:09;3.00;99.90
38090;DHT22;23904;52.322;10.232;2023-02-15T07:48:37;3.40;99.90
38090;DHT22;23904;52.322;10.232;2023-02-15T07:51:05;3.60;99.90
38090;DHT22;23904;52.322;10.232;2023-02-15T07:53:33;3.70;99.90
38090;DHT22;23904;52.322;10.232;2023-02-15T07:55:59;3.70;99.90
38090;DHT22;23904;52.322;10.232;2023-02-15T07:58:28;3.50;99.90
38090;DHT22;23904;52.322;10.232;2023-02-15T08:01:15;3.20;99.90
38090;DHT22;23904;52.322;10.232;2023-02-15T08:03:42;3.10;99.90
38090;DHT22;23904;52.322;10.232;2023-02-15T08:06:07;3.10;99.90
38090;DHT22;23904;52.322;10.232;2023-02-15T08:08:34;3.00;99.90
38090;DHT22;23904;52.322;10.232;2023-02-15T08:11:07;3.00;99.90
38090;DHT22;23904;52.322;10.232;2023-02-15T08:13:56;3.00;99.90
38090;DHT22;23904;52.322;10.232;2023-02-15T08:19:23;3.00;99.90
38090;DHT22;23904;52.322;10.232;2023-02-15T08:22:02;3.10;99.90
38090;DHT22;23904;52.322;10.232;2023-02-15T08:24:33;3.20;99.90
38090;DHT22;23904;52.322;10.232;2023-02-15T08:27:02;3.20;99.90
38090;DHT22;23904;52.322;10.232;2023-02-15T08:29:29;3.10;99.90
38090;DHT22;23904;52.322;10.232;2023-02-15T08:31:58;3.20;99.90
38090;DHT22;23904;52.322;10.232;2023-02-15T08:34:28;3.20;99.90
38090;DHT22;23904;52.322;10.232;2023-02-15T08:36:55;3.30;99.90
38090;DHT22;23904;52.322;10.232;2023-02-15T08:39:25;3.30;99.90
38090;DHT22;23904;52.322;10.232;2023-02-15T08:41:51;3.40;99.90
38090;DHT22;23904;52.322;10.232;2023-02-15T08:44:19;3.40;99.90
38090;DHT22;23904;52.322;10.232;2023-02-15T08:46:46;3.50;99.90
38090;DHT22;23904;52.322;10.232;2023-02-15T08:49:18;3.60;99.90
38090;DHT22;23904;52.322;10.232;2023-02-15T08:51:45;3.80;99.90
38090;DHT22;23904;52.322;10.232;2023-02-15T08:54:14;3.80;99.90
38090;DHT22;23904;52.322;10.232;2023-02-15T08:56:42;4.00;99.90
38090;DHT22;23904;52.322;10.232;2023-02-15T08:59:14;4.00;99.90
38090;DHT22;23904;52.322;10.232;2023-02-15T09:01:41;4.00;99.90
38090;DHT22;23904;52.322;10.232;2023-02-15T09:04:08;4.20;99.90
38090;DHT22;23904;52.322;10.232;2023-02-15T09:06:34;4.20;99.90
38090;DHT22;23904;52.322;10.232;2023-02-15T09:09:01;4.30;99.90
38090;DHT22;23904;52.322;10.232;2023-02-15T09:11:28;4.50;99.90
38090;DHT22;23904;52.322;10.232;2023-02-15T09:13:58;4.70;99.90
38090;DHT22;23904;52.322;10.232;2023-02-15T09:16:27;4.80;99.90
38090;DHT22;23904;52.322;10.232;2023-02-15T09:18:55;4.90;99.90
38090;DHT22;23904;52.322;10.232;2023-02-15T09:21:23;5.00;99.90
38090;DHT22;23904;52.322;10.232;2023-02-15T09:23:51;5.10;99.90
38090;DHT22;23904;52.322;10.232;2023-02-15T09:26:19;5.10;99.90
38090;DHT22;23904;52.322;10.232;2023-02-15T09:28:46;5.20;99.90
38090;DHT22;23904;52.322;10.232;2023-02-15T09:31:19;5.50;99.90
38090;DHT22;23904;52.322;10.232;2023-02-15T09:33:48;6.10;99.90
38090;DHT22;23904;52.322;10.232;2023-02-15T09:36:27;6.90;99.90
38090;DHT22;23904;52.322;10.232;2023-02-15T09:38:57;8.40;99.90
38090;DHT22;23904;52.322;10.232;2023-02-15T09:41:40;10.30;99.90
38090;DHT22;23904;52.322;10.232;2023-02-15T09:50:44;13.60;95.10
38090;DHT22;23904;52.322;10.232;2023-02-15T09:56:37;15.60;90.70
38090;DHT22;23904;52.322;10.232;2023-02-15T09:59:13;15.50;88.30
38090;DHT22;23904;52.322;10.232;2023-02-15T10:05:16;14.50;90.50
38090;DHT22;23904;52.322;10.232;2023-02-15T10:08:20;14.30;90.60
38090;DHT22;23904;52.322;10.232;2023-02-15T10:14:36;14.70;90.80
38090;DHT22;23904;52.322;10.232;2023-02-15T10:28:50;16.40;79.20
38090;DHT22;23904;52.322;10.232;2023-02-15T10:31:20;17.00;79.50
38090;DHT22;23904;52.322;10.232;2023-02-15T10:34:18;19.30;71.90
38090;DHT22;23904;52.322;10.232;2023-02-15T10:52:05;20.90;61.50
38090;DHT22;23904;52.322;10.232;2023-02-15T10:54:51;21.40;57.40
38090;DHT22;23904;52.322;10.232;2023-02-15T10:57:59;20.60;59.10
38090;DHT22;23904;52.322;10.232;2023-02-15T11:04:14;17.10;64.50
38090;DHT22;23904;52.322;10.232;2023-02-15T11:06:53;14.80;72.50
38090;DHT22;23904;52.322;10.232;2023-02-15T11:09:23;14.40;77.70
38090;DHT22;23904;52.322;10.232;2023-02-15T11:11:56;14.40;78.10
38090;DHT22;23904;52.322;10.232;2023-02-15T11:14:33;14.90;76.40
38090;DHT22;23904;52.322;10.232;2023-02-15T11:17:46;15.40;74.20
38090;DHT22;23904;52.322;10.232;2023-02-15T11:23:14;12.50;85.80
38090;DHT22;23904;52.322;10.232;2023-02-15T11:25:44;11.90;90.70
38090;DHT22;23904;52.322;10.232;2023-02-15T11:28:20;12.10;91.20
38090;DHT22;23904;52.322;10.232;2023-02-15T11:30:55;12.70;90.30
38090;DHT22;23904;52.322;10.232;2023-02-15T11:33:29;12.70;91.40
38090;DHT22;23904;52.322;10.232;2023-02-15T11:36:17;13.60;90.20
38090;DHT22;23904;52.322;10.232;2023-02-15T11:38:52;14.50;87.70
38090;DHT22;23904;52.322;10.232;2023-02-15T11:41:27;15.10;84.80
38090;DHT22;23904;52.322;10.232;2023-02-15T11:46:24;16.70;78.10
38090;DHT22;23904;52.322;10.232;2023-02-15T11:48:50;17.10;76.40
38090;DHT22;23904;52.322;10.232;2023-02-15T11:51:18;18.00;73.00
38090;DHT22;23904;52.322;10.232;2023-02-15T11:53:46;18.30;71.00
38090;DHT22;23904;52.322;10.232;2023-02-15T11:56:18;18.10;71.70
38090;DHT22;23904;52.322;10.232;2023-02-15T11:59:01;18.80;69.80
38090;DHT22;23904;52.322;10.232;2023-02-15T12:01:42;18.90;69.10
38090;DHT22;23904;52.322;10.232;2023-02-15T12:07:13;15.80;80.60
38090;DHT22;23904;52.322;10.232;2023-02-15T12:10:04;15.40;84.20
38090;DHT22;23904;52.322;10.232;2023-02-15T12:12:47;16.60;80.20
38090;DHT22;23904;52.322;10.232;2023-02-15T12:15:14;17.50;77.30
38090;DHT22;23904;52.322;10.232;2023-02-15T12:17:53;19.60;71.60
38090;DHT22;23904;52.322;10.232;2023-02-15T12:22:53;19.70;71.40
38090;DHT22;23904;52.322;10.232;2023-02-15T12:25:42;21.60;63.10
38090;DHT22;23904;52.322;10.232;2023-02-15T12:28:35;20.90;64.40
38090;DHT22;23904;52.322;10.232;2023-02-15T12:31:10;21.20;61.90
38090;DHT22;23904;52.322;10.232;2023-02-15T12:33:45;20.80;63.80
38090;DHT22;23904;52.322;10.232;2023-02-15T12:39:20;21.90;60.30
38090;DHT22;23904;52.322;10.232;2023-02-15T12:44:25;21.00;60.50
38090;DHT22;23904;52.322;10.232;2023-02-15T12:49:23;19.50;64.00
38090;DHT22;23904;52.322;10.232;2023-02-15T12:51:51;18.70;65.90
38090;DHT22;23904;52.322;10.232;2023-02-15T12:56:50;18.00;65.00
38090;DHT22;23904;52.322;10.232;2023-02-15T12:59:17;18.20;66.30
38090;DHT22;23904;52.322;10.232;2023-02-15T13:01:46;17.40;68.20
38090;DHT22;23904;52.322;10.232;2023-02-15T13:04:21;16.50;72.50
38090;DHT22;23904;52.322;10.232;2023-02-15T13:06:50;15.60;76.00
38090;DHT22;23904;52.322;10.232;2023-02-15T13:12:17;14.40;81.20
38090;DHT22;23904;52.322;10.232;2023-02-15T13:14:45;14.20;83.60
38090;DHT22;23904;52.322;10.232;2023-02-15T13:17:15;14.20;84.80
38090;DHT22;23904;52.322;10.232;2023-02-15T13:19:48;14.40;84.60
38090;DHT22;23904;52.322;10.232;2023-02-15T13:22:19;14.40;84.90
38090;DHT22;23904;52.322;10.232;2023-02-15T13:24:50;14.20;83.70
38090;DHT22;23904;52.322;10.232;2023-02-15T13:27:21;14.30;84.50
38090;DHT22;23904;52.322;10.232;2023-02-15T13:29:52;14.30;84.40
38090;DHT22;23904;52.322;10.232;2023-02-15T13:32:52;14.60;84.20
38090;DHT22;23904;52.322;10.232;2023-02-15T13:35:20;14.40;83.10
38090;DHT22;23904;52.322;10.232;2023-02-15T13:38:00;14.40;83.80
38090;DHT22;23904;52.322;10.232;2023-02-15T13:41:04;14.50;83.70
38090;DHT22;23904;52.322;10.232;2023-02-15T13:43:35;14.70;84.00
38090;DHT22;23904;52.322;10.232;2023-02-15T13:46:22;14.20;83.80
38090;DHT22;23904;52.322;10.232;2023-02-15T14:00:17;15.10;81.60
38090;DHT22;23904;52.322;10.232;2023-02-15T14:03:12;15.60;79.60
38090;DHT22;23904;52.322;10.232;2023-02-15T14:17:59;12.60;90.80
38090;DHT22;23904;52.322;10.232;2023-02-15T14:23:33;12.40;91.90
38090;DHT22;23904;52.322;10.232;2023-02-15T14:29:06;11.50;94.70
38090;DHT22;23904;52.322;10.232;2023-02-15T14:31:42;11.80;94.50
38090;DHT22;23904;52.322;10.232;2023-02-15T14:34:34;11.80;94.50
38090;DHT22;23904;52.322;10.232;2023-02-15T14:37:10;11.70;94.50
38090;DHT22;23904;52.322;10.232;2023-02-15T14:43:11;11.10;96.40
38090;DHT22;23904;52.322;10.232;2023-02-15T14:45:50;10.80;97.40
38090;DHT22;23904;52.322;10.232;2023-02-15T14:48:35;10.90;97.60
38090;DHT22;23904;52.322;10.232;2023-02-15T14:51:05;10.80;97.30
38090;DHT22;23904;52.322;10.232;2023-02-15T14:53:34;10.70;97.70
38090;DHT22;23904;52.322;10.232;2023-02-15T14:56:19;10.70;97.70
38090;DHT22;23904;52.322;10.232;2023-02-15T15:01:26;10.70;98.00
38090;DHT22;23904;52.322;10.232;2023-02-15T15:04:06;10.60;97.90
38090;DHT22;23904;52.322;10.232;2023-02-15T15:06:43;10.60;98.60
38090;DHT22;23904;52.322;10.232;2023-02-15T15:11:53;10.60;98.80
38090;DHT22;23904;52.322;10.232;2023-02-15T15:17:02;10.50;99.20
38090;DHT22;23904;52.322;10.232;2023-02-15T15:22:22;10.60;98.00
38090;DHT22;23904;52.322;10.232;2023-02-15T15:25:39;10.50;97.90
38090;DHT22;23904;52.322;10.232;2023-02-15T15:27:57;10.40;98.30
38090;DHT22;23904;52.322;10.232;2023-02-15T15:38:15;10.30;99.10
38090;DHT22;23904;52.322;10.232;2023-02-15T15:50:20;10.00;99.90
38090;DHT22;23904;52.322;10.232;2023-02-15T15:52:52;10.00;99.90
38090;DHT22;23904;52.322;10.232;2023-02-15T15:55:23;9.90;99.90
38090;DHT22;23904;52.322;10.232;2023-02-15T15:57:56;9.90;99.90
38090;DHT22;23904;52.322;10.232;2023-02-15T16:00:36;9.80;99.90
38090;DHT22;23904;52.322;10.232;2023-02-15T16:03:03;9.70;99.90
38090;DHT22;23904;52.322;10.232;2023-02-15T16:05:37;9.70;99.90
38090;DHT22;23904;52.322;10.232;2023-02-15T16:08:03;9.60;99.90
38090;DHT22;23904;52.322;10.232;2023-02-15T16:10:30;9.50;99.90
38090;DHT22;23904;52.322;10.232;2023-02-15T16:12:58;9.50;99.90
38090;DHT22;23904;52.322;10.232;2023-02-15T16:18:02;9.40;99.90
38090;DHT22;23904;52.322;10.232;2023-02-15T16:20:35;9.30;99.90
38090;DHT22;23904;52.322;10.232;2023-02-15T16:26:33;9.20;99.90
38090;DHT22;23904;52.322;10.232;2023-02-15T16:29:17;9.10;99.90
38090;DHT22;23904;52.322;10.232;2023-02-15T16:31:59;9.10;99.90
38090;DHT22;23904;52.322;10.232;2023-02-15T16:35:00;9.00;99.90
38090;DHT22;23904;52.322;10.232;2023-02-15T16:37:32;8.90;99.90
38090;DHT22;23904;52.322;10.232;2023-02-15T16:39:59;8.80;99.90
38090;DHT22;23904;52.322;10.232;2023-02-15T16:42:26;8.80;99.90
38090;DHT22;23904;52.322;10.232;2023-02-15T16:45:00;8.60;99.90
38090;DHT22;23904;52.322;10.232;2023-02-15T16:47:35;8.60;99.90
38090;DHT22;23904;52.322;10.232;2023-02-15T16:50:05;8.50;99.90
38090;DHT22;23904;52.322;10.232;2023-02-15T16:52:31;8.50;99.90
38090;DHT22;23904;52.322;10.232;2023-02-15T16:55:03;8.50;99.90
38090;DHT22;23904;52.322;10.232;2023-02-15T16:57:33;8.40;99.90
38090;DHT22;23904;52.322;10.232;2023-02-15T17:00:04;8.40;99.90
38090;DHT22;23904;52.322;10.232;2023-02-15T17:02:34;8.40;99.90
38090;DHT22;23904;52.322;10.232;2023-02-15T17:05:15;8.30;99.90
38090;DHT22;23904;52.322;10.232;2023-02-15T17:08:02;8.30;99.90
38090;DHT22;23904;52.322;10.232;2023-02-15T17:10:40;8.20;99.90
38090;DHT22;23904;52.322;10.232;2023-02-15T17:13:15;8.20;99.90
38090;DHT22;23904;52.322;10.232;2023-02-15T17:18:26;8.10;99.90
38090;DHT22;23904;52.322;10.232;2023-02-15T17:21:01;8.00;99.90
38090;DHT22;23904;52.322;10.232;2023-02-15T17:23:43;8.00;99.90
38090;DHT22;23904;52.322;10.232;2023-02-15T17:28:49;7.90;99.90
38090;DHT22;23904;52.322;10.232;2023-02-15T17:31:17;7.90;99.90
38090;DHT22;23904;52.322;10.232;2023-02-15T17:33:44;7.80;99.90
38090;DHT22;23904;52.322;10.232;2023-02-15T17:36:30;7.80;99.90
38090;DHT22;23904;52.322;10.232;2023-02-15T17:39:06;7.80;99.90
38090;DHT22;23904;52.322;10.232;2023-02-15T17:41:43;7.80;99.90
38090;DHT22;23904;52.322;10.232;2023-02-15T17:44:09;7.70;99.90
38090;DHT22;23904;52.322;10.232;2023-02-15T17:46:39;7.70;99.90
38090;DHT22;23904;52.322;10.232;2023-02-15T17:49:06;7.60;99.90
38090;DHT22;23904;52.322;10.232;2023-02-15T17:51:32;7.60;99.90
38090;DHT22;23904;52.322;10.232;2023-02-15T17:54:00;7.60;99.90
38090;DHT22;23904;52.322;10.232;2023-02-15T17:56:45;7.50;99.90
38090;DHT22;23904;52.322;10.232;2023-02-15T17:59:11;7.50;99.90
38090;DHT22;23904;52.322;10.232;2023-02-15T18:01:46;7.40;99.90
38090;DHT22;23904;52.322;10.232;2023-02-15T18:04:33;7.40;99.90
38090;DHT22;23904;52.322;10.232;2023-02-15T18:07:19;7.20;99.90
38090;DHT22;23904;52.322;10.232;2023-02-15T18:10:15;7.00;99.90
38090;DHT22;23904;52.322;10.232;2023-02-15T18:13:00;7.00;99.90
38090;DHT22;23904;52.322;10.232;2023-02-15T18:15:26;7.10;99.90
38090;DHT22;23904;52.322;10.232;2023-02-15T18:17:52;7.00;99.90
38090;DHT22;23904;52.322;10.232;2023-02-15T18:20:24;7.10;99.90
38090;DHT22;23904;52.322;10.232;2023-02-15T18:22:53;7.00;99.90
38090;DHT22;23904;52.322;10.232;2023-02-15T18:25:21;7.00;99.90
38090;DHT22;23904;52.322;10.232;2023-02-15T18:27:48;6.90;99.90
38090;DHT22;23904;52.322;10.232;2023-02-15T18:30:17;6.90;99.90
38090;DHT22;23904;52.322;10.232;2023-02-15T18:32:45;6.80;99.90
38090;DHT22;23904;52.322;10.232;2023-02-15T18:35:16;6.80;99.90
38090;DHT22;23904;52.322;10.232;2023-02-15T18:37:43;6.80;99.90
38090;DHT22;23904;52.322;10.232;2023-02-15T18:40:24;6.70;99.90
38090;DHT22;23904;52.322;10.232;2023-02-15T18:42:52;6.70;99.90
38090;DHT22;23904;52.322;10.232;2023-02-15T18:45:23;6.60;99.90
38090;DHT22;23904;52.322;10.232;2023-02-15T18:47:56;6.50;99.90
38090;DHT22;23904;52.322;10.232;2023-02-15T18:50:24;6.40;99.90
38090;DHT22;23904;52.322;10.232;2023-02-15T18:52:52;6.50;99.90